GCLP

Details ICAO GCLP (LPA)
Name Gran Canaria - Las Palmas
Region Canary Islands
Timezone Atlantic/Canary (UTC+1.0)
Plans Departing 1064
Arriving 1375
Stats Elevation 78 ft / 24 m (AMSL)
Location 27.931600° -15.385600°
Runways 2
Magnetic Variation 4.588° W
Sunrise 2018-10-15 07:02:50 UTC / 2018-10-15 08:02:50 Local
Sunset 2018-10-15 18:34:07 UTC / 2018-10-15 19:34:07 Local
Advertisement - Login to hide

Runways

ID Width Length Bearing (true/mag) Surface Threshold Overrun Markings Lighting
03L 148 ft / 45 m 10,181 ft / 3,103 m 21.33° / 25.92° ASPHALT 0 ft / 0 m 656 ft / 200 m PREC-APP CENTERLINE EDGE THRESHOLD CALVERT REIL-OMNI
03R 148 ft / 45 m 10,181 ft / 3,103 m 21.33° / 25.92° ASPHALT 0 ft / 0 m 656 ft / 200 m PREC-APP CENTERLINE EDGE THRESHOLD CALVERT REIL-OMNI
21L 148 ft / 45 m 10,181 ft / 3,103 m 201.34° / 205.93° ASPHALT 0 ft / 0 m 666 ft / 203 m PREC-APP CENTERLINE EDGE THRESHOLD MALS REIL-OMNI
21R 148 ft / 45 m 10,181 ft / 3,103 m 201.34° / 205.93° ASPHALT 0 ft / 0 m 755 ft / 230 m PREC-APP CENTERLINE EDGE THRESHOLD MALS REIL-OMNI

Approach Navaids

Runway Type Ident Frequency Range Bearing (true/mag) Slope Elevation
03L DME ILP 109.90 MHz 18 nm / 33 km - - 102 ft / 31 m (AMSL)
03L LOC-ILS ILP 109.90 MHz 18 nm / 33 km 21.33° / 25.92° - 77 ft / 23 m (AMSL)
03L GS ILP 109.90 MHz 10 nm / 19 km 21.66° / 26.25° 3.00° 102 ft / 31 m (AMSL)
21R GS RLP 110.70 MHz 10 nm / 19 km 201.66° / 206.25° 3.00° 77 ft / 23 m (AMSL)
21R DME RLP 110.70 MHz 18 nm / 33 km - - 57 ft / 17 m (AMSL)
21R LOC-ILS RLP 110.70 MHz 18 nm / 33 km 201.32° / 205.91° - 77 ft / 23 m (AMSL)

Map

Weather


0- 5 10 15 20 25 30 35+ Temperature / °C

Clouds and Precipitation
Forecast for 2018-10-16 00:00 UTC. Updated an hour ago

Ground ~20,000 ft ~40,000 ft Winds

METAR

GCLP 152230Z 02018KT 9999 BKN030 23/16 Q1018 NOSIG

TAF

TAF GCLP 152000Z 1521/1621 01016KT 9999 SCT025 TX25/1615Z TN21/1605Z= TAF AMD KFTK 152018Z 1520/1623 35009KT 9999 OVC015 QNH3016INS BECMG 1521/1522 01009KT 8000 -SHRA BKN010 OVC050 QNH3016INS BECMG 1523/1524 02009KT 9999 NSW SCT015 SCT080 BKN250 QNH3028INS BECMG 1603/1604 03009KT 9999 BKN200 QNH3020INS TX11/1520Z TN06/1610Z

Frequencies

Ground 121.70 MHz GCLP GND
Recorded 118.60 MHz GCLP ATIS
Approach 124.30 MHz GCLP APP
Tower 118.30 MHz GCLP TWR
Warning: Do not use this data for real-world aviation or navigation. No guarantee of current accuracy is given.